sensor_id;sensor_type;location;lat;lon;timestamp;temperature;humidity
21425;DHT22;10873;51.132;16.848;2024-02-16T00:00:59;24.40;52.50
21425;DHT22;10873;51.132;16.848;2024-02-16T00:03:34;24.50;52.50
21425;DHT22;10873;51.132;16.848;2024-02-16T00:06:01;24.50;52.60
21425;DHT22;10873;51.132;16.848;2024-02-16T00:08:29;24.50;53.20
21425;DHT22;10873;51.132;16.848;2024-02-16T00:10:57;24.50;52.60
21425;DHT22;10873;51.132;16.848;2024-02-16T00:13:24;24.50;52.60
21425;DHT22;10873;51.132;16.848;2024-02-16T00:15:51;24.40;52.60
21425;DHT22;10873;51.132;16.848;2024-02-16T00:18:18;24.40;52.60
21425;DHT22;10873;51.132;16.848;2024-02-16T00:20:45;24.40;52.70
21425;DHT22;10873;51.132;16.848;2024-02-16T00:23:12;24.40;52.70
21425;DHT22;10873;51.132;16.848;2024-02-16T00:25:39;24.40;52.70
21425;DHT22;10873;51.132;16.848;2024-02-16T00:28:08;24.40;52.70
21425;DHT22;10873;51.132;16.848;2024-02-16T00:30:34;24.40;52.70
21425;DHT22;10873;51.132;16.848;2024-02-16T00:33:06;24.40;52.70
21425;DHT22;10873;51.132;16.848;2024-02-16T00:35:33;24.40;52.70
21425;DHT22;10873;51.132;16.848;2024-02-16T00:38:00;24.40;52.70
21425;DHT22;10873;51.132;16.848;2024-02-16T00:40:26;24.40;52.70
21425;DHT22;10873;51.132;16.848;2024-02-16T00:42:53;24.40;52.70
21425;DHT22;10873;51.132;16.848;2024-02-16T00:45:20;24.40;52.70
21425;DHT22;10873;51.132;16.848;2024-02-16T00:47:47;24.40;52.70
21425;DHT22;10873;51.132;16.848;2024-02-16T00:50:15;24.40;52.70
21425;DHT22;10873;51.132;16.848;2024-02-16T00:52:41;24.30;52.60
21425;DHT22;10873;51.132;16.848;2024-02-16T00:55:09;24.40;52.70
21425;DHT22;10873;51.132;16.848;2024-02-16T00:57:36;24.40;52.60
21425;DHT22;10873;51.132;16.848;2024-02-16T01:00:03;24.30;52.50
21425;DHT22;10873;51.132;16.848;2024-02-16T01:02:30;24.30;52.50
21425;DHT22;10873;51.132;16.848;2024-02-16T01:04:58;24.30;52.50
21425;DHT22;10873;51.132;16.848;2024-02-16T01:07:27;24.30;52.50
21425;DHT22;10873;51.132;16.848;2024-02-16T01:09:54;24.30;52.50
21425;DHT22;10873;51.132;16.848;2024-02-16T01:12:22;24.30;52.50
21425;DHT22;10873;51.132;16.848;2024-02-16T01:14:49;24.30;52.50
21425;DHT22;10873;51.132;16.848;2024-02-16T01:17:15;24.30;52.40
21425;DHT22;10873;51.132;16.848;2024-02-16T01:19:42;24.30;52.40
21425;DHT22;10873;51.132;16.848;2024-02-16T01:22:08;24.30;52.40
21425;DHT22;10873;51.132;16.848;2024-02-16T01:24:35;24.30;52.40
21425;DHT22;10873;51.132;16.848;2024-02-16T01:27:02;24.30;52.40
21425;DHT22;10873;51.132;16.848;2024-02-16T01:29:29;24.30;52.40
21425;DHT22;10873;51.132;16.848;2024-02-16T01:31:55;24.30;52.30
21425;DHT22;10873;51.132;16.848;2024-02-16T01:34:23;24.30;52.30
21425;DHT22;10873;51.132;16.848;2024-02-16T01:36:49;24.30;52.30
21425;DHT22;10873;51.132;16.848;2024-02-16T01:39:16;24.30;52.20
21425;DHT22;10873;51.132;16.848;2024-02-16T01:41:42;24.30;52.20
21425;DHT22;10873;51.132;16.848;2024-02-16T01:44:09;24.20;52.10
21425;DHT22;10873;51.132;16.848;2024-02-16T01:46:35;24.30;52.10
21425;DHT22;10873;51.132;16.848;2024-02-16T01:49:02;24.20;52.00
21425;DHT22;10873;51.132;16.848;2024-02-16T01:51:29;24.20;51.90
21425;DHT22;10873;51.132;16.848;2024-02-16T01:53:57;24.20;51.90
21425;DHT22;10873;51.132;16.848;2024-02-16T01:56:23;24.20;51.90
21425;DHT22;10873;51.132;16.848;2024-02-16T01:58:51;24.20;51.80
21425;DHT22;10873;51.132;16.848;2024-02-16T02:01:17;24.20;52.50
21425;DHT22;10873;51.132;16.848;2024-02-16T02:03:43;24.20;51.80
21425;DHT22;10873;51.132;16.848;2024-02-16T02:06:09;24.20;51.80
21425;DHT22;10873;51.132;16.848;2024-02-16T02:08:36;24.20;51.80
21425;DHT22;10873;51.132;16.848;2024-02-16T02:11:03;24.20;51.80
21425;DHT22;10873;51.132;16.848;2024-02-16T02:13:30;24.20;51.80
21425;DHT22;10873;51.132;16.848;2024-02-16T02:15:56;24.20;51.80
21425;DHT22;10873;51.132;16.848;2024-02-16T02:18:24;24.20;51.80
21425;DHT22;10873;51.132;16.848;2024-02-16T02:20:50;24.20;51.80
21425;DHT22;10873;51.132;16.848;2024-02-16T02:23:17;24.20;51.80
21425;DHT22;10873;51.132;16.848;2024-02-16T02:25:44;24.20;51.80
21425;DHT22;10873;51.132;16.848;2024-02-16T02:28:11;24.30;51.80
21425;DHT22;10873;51.132;16.848;2024-02-16T02:30:37;24.30;51.80
21425;DHT22;10873;51.132;16.848;2024-02-16T02:33:05;24.30;51.70
21425;DHT22;10873;51.132;16.848;2024-02-16T02:35:31;24.30;51.70
21425;DHT22;10873;51.132;16.848;2024-02-16T02:37:58;24.30;52.30
21425;DHT22;10873;51.132;16.848;2024-02-16T02:40:24;24.30;51.70
21425;DHT22;10873;51.132;16.848;2024-02-16T02:42:51;24.30;51.70
21425;DHT22;10873;51.132;16.848;2024-02-16T02:45:18;24.30;51.60
21425;DHT22;10873;51.132;16.848;2024-02-16T02:47:44;24.20;51.50
21425;DHT22;10873;51.132;16.848;2024-02-16T02:50:12;24.20;51.50
21425;DHT22;10873;51.132;16.848;2024-02-16T02:52:38;24.30;51.50
21425;DHT22;10873;51.132;16.848;2024-02-16T02:55:05;24.20;51.50
21425;DHT22;10873;51.132;16.848;2024-02-16T02:57:35;24.20;51.40
21425;DHT22;10873;51.132;16.848;2024-02-16T03:00:03;24.20;51.40
21425;DHT22;10873;51.132;16.848;2024-02-16T03:02:32;24.20;51.30
21425;DHT22;10873;51.132;16.848;2024-02-16T03:04:58;24.20;51.30
21425;DHT22;10873;51.132;16.848;2024-02-16T03:07:25;24.20;51.30
21425;DHT22;10873;51.132;16.848;2024-02-16T03:09:52;24.20;51.30
21425;DHT22;10873;51.132;16.848;2024-02-16T03:12:18;24.20;51.30
21425;DHT22;10873;51.132;16.848;2024-02-16T03:14:45;24.20;51.20
21425;DHT22;10873;51.132;16.848;2024-02-16T03:17:12;24.20;51.20
21425;DHT22;10873;51.132;16.848;2024-02-16T03:19:38;24.20;51.20
21425;DHT22;10873;51.132;16.848;2024-02-16T03:22:04;24.20;51.20
21425;DHT22;10873;51.132;16.848;2024-02-16T03:24:30;24.20;51.20
21425;DHT22;10873;51.132;16.848;2024-02-16T03:26:57;24.20;51.20
21425;DHT22;10873;51.132;16.848;2024-02-16T03:29:24;24.20;51.20
21425;DHT22;10873;51.132;16.848;2024-02-16T03:31:51;24.20;51.30
21425;DHT22;10873;51.132;16.848;2024-02-16T03:34:17;24.10;51.20
21425;DHT22;10873;51.132;16.848;2024-02-16T03:36:44;24.10;51.20
21425;DHT22;10873;51.132;16.848;2024-02-16T03:39:10;24.10;51.20
21425;DHT22;10873;51.132;16.848;2024-02-16T03:41:36;24.10;51.20
21425;DHT22;10873;51.132;16.848;2024-02-16T03:44:05;24.10;51.30
21425;DHT22;10873;51.132;16.848;2024-02-16T03:46:32;24.10;51.20
21425;DHT22;10873;51.132;16.848;2024-02-16T03:48:59;24.10;51.20
21425;DHT22;10873;51.132;16.848;2024-02-16T03:51:25;24.10;51.20
21425;DHT22;10873;51.132;16.848;2024-02-16T03:53:51;24.10;51.10
21425;DHT22;10873;51.132;16.848;2024-02-16T03:56:21;24.10;51.10
21425;DHT22;10873;51.132;16.848;2024-02-16T03:58:49;24.10;51.10
21425;DHT22;10873;51.132;16.848;2024-02-16T04:01:16;24.00;51.70
21425;DHT22;10873;51.132;16.848;2024-02-16T04:03:42;24.00;51.10
21425;DHT22;10873;51.132;16.848;2024-02-16T04:06:09;24.00;51.10
21425;DHT22;10873;51.132;16.848;2024-02-16T04:08:35;24.00;51.10
21425;DHT22;10873;51.132;16.848;2024-02-16T04:11:04;24.00;51.20
21425;DHT22;10873;51.132;16.848;2024-02-16T04:13:30;24.00;51.80
21425;DHT22;10873;51.132;16.848;2024-02-16T04:15:57;24.00;51.10
21425;DHT22;10873;51.132;16.848;2024-02-16T04:18:23;24.00;51.20
21425;DHT22;10873;51.132;16.848;2024-02-16T04:20:50;24.00;51.10
21425;DHT22;10873;51.132;16.848;2024-02-16T04:23:17;24.00;51.10
21425;DHT22;10873;51.132;16.848;2024-02-16T04:25:43;24.00;51.00
21425;DHT22;10873;51.132;16.848;2024-02-16T04:28:09;24.00;51.00
21425;DHT22;10873;51.132;16.848;2024-02-16T04:30:35;24.00;51.00
21425;DHT22;10873;51.132;16.848;2024-02-16T04:33:02;24.00;51.00
21425;DHT22;10873;51.132;16.848;2024-02-16T04:35:30;24.00;51.10
21425;DHT22;10873;51.132;16.848;2024-02-16T04:37:56;24.00;51.20
21425;DHT22;10873;51.132;16.848;2024-02-16T04:40:24;23.90;51.10
21425;DHT22;10873;51.132;16.848;2024-02-16T04:42:50;23.90;51.20
21425;DHT22;10873;51.132;16.848;2024-02-16T04:45:16;23.90;51.20
21425;DHT22;10873;51.132;16.848;2024-02-16T04:47:43;23.90;51.20
21425;DHT22;10873;51.132;16.848;2024-02-16T04:50:10;24.00;51.30
21425;DHT22;10873;51.132;16.848;2024-02-16T04:52:37;23.90;51.20
21425;DHT22;10873;51.132;16.848;2024-02-16T04:55:05;24.00;51.20
21425;DHT22;10873;51.132;16.848;2024-02-16T04:57:32;24.00;51.20
21425;DHT22;10873;51.132;16.848;2024-02-16T04:59:58;24.00;51.30
21425;DHT22;10873;51.132;16.848;2024-02-16T05:02:24;24.00;51.30
21425;DHT22;10873;51.132;16.848;2024-02-16T05:04:51;23.90;51.20
21425;DHT22;10873;51.132;16.848;2024-02-16T05:07:17;23.90;51.30
21425;DHT22;10873;51.132;16.848;2024-02-16T05:09:43;23.90;51.30
21425;DHT22;10873;51.132;16.848;2024-02-16T05:12:10;23.90;51.30
21425;DHT22;10873;51.132;16.848;2024-02-16T05:14:37;23.90;51.40
21425;DHT22;10873;51.132;16.848;2024-02-16T05:17:03;23.90;52.00
21425;DHT22;10873;51.132;16.848;2024-02-16T05:19:32;23.90;51.30
21425;DHT22;10873;51.132;16.848;2024-02-16T05:22:00;23.90;51.20
21425;DHT22;10873;51.132;16.848;2024-02-16T05:24:26;23.90;51.20
21425;DHT22;10873;51.132;16.848;2024-02-16T05:26:52;23.90;51.50
21425;DHT22;10873;51.132;16.848;2024-02-16T05:29:18;24.00;51.20
21425;DHT22;10873;51.132;16.848;2024-02-16T05:31:45;23.90;51.10
21425;DHT22;10873;51.132;16.848;2024-02-16T05:34:11;24.00;51.20
21425;DHT22;10873;51.132;16.848;2024-02-16T05:36:39;23.90;51.20
21425;DHT22;10873;51.132;16.848;2024-02-16T05:39:08;24.00;51.30
21425;DHT22;10873;51.132;16.848;2024-02-16T05:41:52;23.90;51.20
21425;DHT22;10873;51.132;16.848;2024-02-16T05:44:18;24.00;51.20
21425;DHT22;10873;51.132;16.848;2024-02-16T05:46:46;24.00;51.20
21425;DHT22;10873;51.132;16.848;2024-02-16T05:49:14;24.00;51.20
21425;DHT22;10873;51.132;16.848;2024-02-16T05:51:40;24.00;51.20
21425;DHT22;10873;51.132;16.848;2024-02-16T05:54:09;24.00;51.20
21425;DHT22;10873;51.132;16.848;2024-02-16T05:56:37;24.00;51.10
21425;DHT22;10873;51.132;16.848;2024-02-16T05:59:05;24.00;51.10
21425;DHT22;10873;51.132;16.848;2024-02-16T06:01:31;23.90;51.00
21425;DHT22;10873;51.132;16.848;2024-02-16T06:03:58;24.00;51.10
21425;DHT22;10873;51.132;16.848;2024-02-16T06:06:24;23.90;51.00
21425;DHT22;10873;51.132;16.848;2024-02-16T06:08:50;23.90;51.00
21425;DHT22;10873;51.132;16.848;2024-02-16T06:11:16;23.90;51.00
21425;DHT22;10873;51.132;16.848;2024-02-16T06:13:42;23.90;51.00
21425;DHT22;10873;51.132;16.848;2024-02-16T06:16:09;23.90;50.90
21425;DHT22;10873;51.132;16.848;2024-02-16T06:18:35;23.90;50.90
21425;DHT22;10873;51.132;16.848;2024-02-16T06:21:02;24.00;50.80
21425;DHT22;10873;51.132;16.848;2024-02-16T06:23:28;24.00;50.80
21425;DHT22;10873;51.132;16.848;2024-02-16T06:25:54;24.00;50.70
21425;DHT22;10873;51.132;16.848;2024-02-16T06:28:21;24.00;50.70
21425;DHT22;10873;51.132;16.848;2024-02-16T06:30:49;24.00;50.70
21425;DHT22;10873;51.132;16.848;2024-02-16T06:33:16;24.00;50.70
21425;DHT22;10873;51.132;16.848;2024-02-16T06:35:43;24.00;50.70
21425;DHT22;10873;51.132;16.848;2024-02-16T06:38:09;24.00;50.70
21425;DHT22;10873;51.132;16.848;2024-02-16T06:40:36;24.00;50.70
21425;DHT22;10873;51.132;16.848;2024-02-16T06:43:02;24.00;50.80
21425;DHT22;10873;51.132;16.848;2024-02-16T06:45:30;24.00;50.90
21425;DHT22;10873;51.132;16.848;2024-02-16T06:47:56;24.00;51.00
21425;DHT22;10873;51.132;16.848;2024-02-16T06:50:23;24.00;51.00
21425;DHT22;10873;51.132;16.848;2024-02-16T06:52:49;24.00;51.00
21425;DHT22;10873;51.132;16.848;2024-02-16T06:55:16;24.00;51.10
21425;DHT22;10873;51.132;16.848;2024-02-16T06:57:43;24.00;51.10
21425;DHT22;10873;51.132;16.848;2024-02-16T07:00:10;24.00;51.10
21425;DHT22;10873;51.132;16.848;2024-02-16T07:02:37;24.00;51.10
21425;DHT22;10873;51.132;16.848;2024-02-16T07:05:03;24.00;51.10
21425;DHT22;10873;51.132;16.848;2024-02-16T07:07:30;24.00;51.20
21425;DHT22;10873;51.132;16.848;2024-02-16T07:09:58;24.00;51.20
21425;DHT22;10873;51.132;16.848;2024-02-16T07:12:25;24.00;51.40
21425;DHT22;10873;51.132;16.848;2024-02-16T07:14:51;24.00;51.50
21425;DHT22;10873;51.132;16.848;2024-02-16T07:17:18;24.00;51.50
21425;DHT22;10873;51.132;16.848;2024-02-16T07:19:44;24.00;51.60
21425;DHT22;10873;51.132;16.848;2024-02-16T07:22:10;24.00;51.60
21425;DHT22;10873;51.132;16.848;2024-02-16T07:24:38;24.00;51.70
21425;DHT22;10873;51.132;16.848;2024-02-16T07:27:04;24.00;51.70
21425;DHT22;10873;51.132;16.848;2024-02-16T07:29:31;24.00;51.70
21425;DHT22;10873;51.132;16.848;2024-02-16T07:31:57;24.10;51.80
21425;DHT22;10873;51.132;16.848;2024-02-16T07:34:24;24.10;51.90
21425;DHT22;10873;51.132;16.848;2024-02-16T07:36:50;24.10;51.90
21425;DHT22;10873;51.132;16.848;2024-02-16T07:39:18;24.10;52.00
21425;DHT22;10873;51.132;16.848;2024-02-16T07:41:45;24.10;52.00
21425;DHT22;10873;51.132;16.848;2024-02-16T07:44:11;24.10;52.00
21425;DHT22;10873;51.132;16.848;2024-02-16T07:46:42;24.10;52.00
21425;DHT22;10873;51.132;16.848;2024-02-16T07:49:09;24.10;52.10
21425;DHT22;10873;51.132;16.848;2024-02-16T07:51:37;24.10;52.10
21425;DHT22;10873;51.132;16.848;2024-02-16T07:54:03;24.10;52.10
21425;DHT22;10873;51.132;16.848;2024-02-16T07:56:32;24.10;52.20
21425;DHT22;10873;51.132;16.848;2024-02-16T07:58:58;24.10;52.20
21425;DHT22;10873;51.132;16.848;2024-02-16T08:01:25;24.10;52.20
21425;DHT22;10873;51.132;16.848;2024-02-16T08:03:51;24.10;52.20
21425;DHT22;10873;51.132;16.848;2024-02-16T08:06:19;24.10;52.20
21425;DHT22;10873;51.132;16.848;2024-02-16T08:08:48;24.10;52.20
21425;DHT22;10873;51.132;16.848;2024-02-16T08:11:14;24.10;52.30
21425;DHT22;10873;51.132;16.848;2024-02-16T08:13:40;24.20;52.40
21425;DHT22;10873;51.132;16.848;2024-02-16T08:16:08;24.20;52.40
21425;DHT22;10873;51.132;16.848;2024-02-16T08:18:34;24.20;52.50
21425;DHT22;10873;51.132;16.848;2024-02-16T08:21:02;24.20;52.50
21425;DHT22;10873;51.132;16.848;2024-02-16T08:23:28;24.20;52.50
21425;DHT22;10873;51.132;16.848;2024-02-16T08:25:54;24.30;52.50
21425;DHT22;10873;51.132;16.848;2024-02-16T08:28:20;24.30;52.40
21425;DHT22;10873;51.132;16.848;2024-02-16T08:30:47;24.30;52.30
21425;DHT22;10873;51.132;16.848;2024-02-16T08:33:13;24.30;52.30
21425;DHT22;10873;51.132;16.848;2024-02-16T08:35:40;24.30;52.20
21425;DHT22;10873;51.132;16.848;2024-02-16T08:38:07;24.40;52.20
21425;DHT22;10873;51.132;16.848;2024-02-16T08:40:37;24.30;52.90
21425;DHT22;10873;51.132;16.848;2024-02-16T08:43:04;24.40;52.20
21425;DHT22;10873;51.132;16.848;2024-02-16T08:45:31;24.40;52.20
21425;DHT22;10873;51.132;16.848;2024-02-16T08:47:57;24.40;52.10
21425;DHT22;10873;51.132;16.848;2024-02-16T08:50:24;24.40;52.10
21425;DHT22;10873;51.132;16.848;2024-02-16T08:52:50;24.40;52.20
21425;DHT22;10873;51.132;16.848;2024-02-16T08:55:19;24.50;52.10
21425;DHT22;10873;51.132;16.848;2024-02-16T08:57:45;24.50;52.10
21425;DHT22;10873;51.132;16.848;2024-02-16T09:00:12;24.50;52.70
21425;DHT22;10873;51.132;16.848;2024-02-16T09:02:38;24.50;52.10
21425;DHT22;10873;51.132;16.848;2024-02-16T09:05:05;24.40;52.10
21425;DHT22;10873;51.132;16.848;2024-02-16T09:07:31;24.50;52.10
21425;DHT22;10873;51.132;16.848;2024-02-16T09:09:59;24.50;52.10
21425;DHT22;10873;51.132;16.848;2024-02-16T09:12:27;24.50;52.40
21425;DHT22;10873;51.132;16.848;2024-02-16T09:14:54;24.50;52.50
21425;DHT22;10873;51.132;16.848;2024-02-16T09:17:19;24.60;52.50
21425;DHT22;10873;51.132;16.848;2024-02-16T09:19:51;24.60;52.40
21425;DHT22;10873;51.132;16.848;2024-02-16T09:22:17;24.60;52.50
21425;DHT22;10873;51.132;16.848;2024-02-16T09:24:43;24.70;52.50
21425;DHT22;10873;51.132;16.848;2024-02-16T09:27:13;24.80;52.50
21425;DHT22;10873;51.132;16.848;2024-02-16T09:29:40;24.80;53.10
21425;DHT22;10873;51.132;16.848;2024-02-16T09:32:07;24.80;52.40
21425;DHT22;10873;51.132;16.848;2024-02-16T09:34:33;24.80;52.30
21425;DHT22;10873;51.132;16.848;2024-02-16T09:37:00;24.80;52.30
21425;DHT22;10873;51.132;16.848;2024-02-16T09:39:26;24.90;52.40
21425;DHT22;10873;51.132;16.848;2024-02-16T09:41:54;24.90;52.40
21425;DHT22;10873;51.132;16.848;2024-02-16T09:44:20;24.90;52.40
21425;DHT22;10873;51.132;16.848;2024-02-16T09:46:48;24.90;52.50
21425;DHT22;10873;51.132;16.848;2024-02-16T09:49:14;24.80;52.40
21425;DHT22;10873;51.132;16.848;2024-02-16T09:51:40;24.90;52.50
21425;DHT22;10873;51.132;16.848;2024-02-16T09:54:07;24.90;52.50
21425;DHT22;10873;51.132;16.848;2024-02-16T09:56:33;24.90;52.50
21425;DHT22;10873;51.132;16.848;2024-02-16T09:59:00;24.80;52.50
21425;DHT22;10873;51.132;16.848;2024-02-16T10:01:26;24.80;52.50
21425;DHT22;10873;51.132;16.848;2024-02-16T10:04:05;24.80;52.50
21425;DHT22;10873;51.132;16.848;2024-02-16T10:06:32;24.80;52.50
21425;DHT22;10873;51.132;16.848;2024-02-16T10:08:58;24.90;52.50
21425;DHT22;10873;51.132;16.848;2024-02-16T10:11:25;24.90;52.50
21425;DHT22;10873;51.132;16.848;2024-02-16T10:13:57;24.90;52.40
21425;DHT22;10873;51.132;16.848;2024-02-16T10:16:24;24.90;52.40
21425;DHT22;10873;51.132;16.848;2024-02-16T10:18:52;24.80;52.20
21425;DHT22;10873;51.132;16.848;2024-02-16T10:21:28;24.90;52.20
21425;DHT22;10873;51.132;16.848;2024-02-16T10:24:00;24.90;52.20
21425;DHT22;10873;51.132;16.848;2024-02-16T10:26:27;24.90;52.20
21425;DHT22;10873;51.132;16.848;2024-02-16T10:28:55;24.90;52.20
21425;DHT22;10873;51.132;16.848;2024-02-16T10:31:23;24.90;52.20
21425;DHT22;10873;51.132;16.848;2024-02-16T10:33:57;24.90;52.20
21425;DHT22;10873;51.132;16.848;2024-02-16T10:36:25;24.90;52.50
21425;DHT22;10873;51.132;16.848;2024-02-16T10:38:52;24.90;52.00
21425;DHT22;10873;51.132;16.848;2024-02-16T10:41:23;24.90;52.00
21425;DHT22;10873;51.132;16.848;2024-02-16T10:43:51;24.90;51.90
21425;DHT22;10873;51.132;16.848;2024-02-16T10:46:19;24.90;51.90
21425;DHT22;10873;51.132;16.848;2024-02-16T10:48:47;24.90;51.80
21425;DHT22;10873;51.132;16.848;2024-02-16T10:51:15;24.90;51.70
21425;DHT22;10873;51.132;16.848;2024-02-16T10:53:44;24.90;51.80
21425;DHT22;10873;51.132;16.848;2024-02-16T10:56:13;24.90;51.80
21425;DHT22;10873;51.132;16.848;2024-02-16T10:58:40;24.90;51.80
21425;DHT22;10873;51.132;16.848;2024-02-16T11:01:10;24.90;51.80
21425;DHT22;10873;51.132;16.848;2024-02-16T11:03:42;24.90;51.70
21425;DHT22;10873;51.132;16.848;2024-02-16T11:06:15;24.90;51.70
21425;DHT22;10873;51.132;16.848;2024-02-16T11:08:42;24.90;51.60
21425;DHT22;10873;51.132;16.848;2024-02-16T11:11:09;24.90;51.70
21425;DHT22;10873;51.132;16.848;2024-02-16T11:13:39;24.90;51.70
21425;DHT22;10873;51.132;16.848;2024-02-16T11:16:09;24.90;51.70
21425;DHT22;10873;51.132;16.848;2024-02-16T11:18:42;24.90;51.60
21425;DHT22;10873;51.132;16.848;2024-02-16T11:21:13;24.90;51.60
21425;DHT22;10873;51.132;16.848;2024-02-16T11:23:41;24.90;51.60
21425;DHT22;10873;51.132;16.848;2024-02-16T11:26:09;24.90;51.50
21425;DHT22;10873;51.132;16.848;2024-02-16T11:28:41;24.90;51.80
21425;DHT22;10873;51.132;16.848;2024-02-16T11:31:09;24.90;51.50
21425;DHT22;10873;51.132;16.848;2024-02-16T11:33:43;24.90;51.50
21425;DHT22;10873;51.132;16.848;2024-02-16T11:36:10;25.00;51.60
21425;DHT22;10873;51.132;16.848;2024-02-16T11:38:38;24.90;51.60
21425;DHT22;10873;51.132;16.848;2024-02-16T11:41:05;25.00;51.80
21425;DHT22;10873;51.132;16.848;2024-02-16T11:43:32;25.00;51.80
21425;DHT22;10873;51.132;16.848;2024-02-16T11:46:10;25.00;51.80
21425;DHT22;10873;51.132;16.848;2024-02-16T11:48:36;25.00;51.90
21425;DHT22;10873;51.132;16.848;2024-02-16T11:51:03;25.00;52.00
21425;DHT22;10873;51.132;16.848;2024-02-16T11:53:30;25.00;51.90
21425;DHT22;10873;51.132;16.848;2024-02-16T11:55:57;25.00;51.90
21425;DHT22;10873;51.132;16.848;2024-02-16T11:58:24;25.00;51.80
21425;DHT22;10873;51.132;16.848;2024-02-16T12:00:51;25.00;51.70
21425;DHT22;10873;51.132;16.848;2024-02-16T12:03:22;25.00;51.60
21425;DHT22;10873;51.132;16.848;2024-02-16T12:05:52;25.00;51.60
21425;DHT22;10873;51.132;16.848;2024-02-16T12:08:19;25.00;51.60
21425;DHT22;10873;51.132;16.848;2024-02-16T12:10:47;25.00;51.60
21425;DHT22;10873;51.132;16.848;2024-02-16T12:13:15;25.00;51.50
21425;DHT22;10873;51.132;16.848;2024-02-16T12:15:41;25.00;51.50
21425;DHT22;10873;51.132;16.848;2024-02-16T12:18:09;25.00;51.40
21425;DHT22;10873;51.132;16.848;2024-02-16T12:20:36;25.10;51.50
21425;DHT22;10873;51.132;16.848;2024-02-16T12:23:11;25.00;51.40
21425;DHT22;10873;51.132;16.848;2024-02-16T12:25:37;25.10;51.50
21425;DHT22;10873;51.132;16.848;2024-02-16T12:28:04;25.00;51.40
21425;DHT22;10873;51.132;16.848;2024-02-16T12:30:31;25.10;51.40
21425;DHT22;10873;51.132;16.848;2024-02-16T12:32:57;25.10;51.40
21425;DHT22;10873;51.132;16.848;2024-02-16T12:35:23;25.10;51.40
21425;DHT22;10873;51.132;16.848;2024-02-16T12:37:51;25.10;51.30
21425;DHT22;10873;51.132;16.848;2024-02-16T12:40:17;25.10;51.30
21425;DHT22;10873;51.132;16.848;2024-02-16T12:42:44;25.10;51.30
21425;DHT22;10873;51.132;16.848;2024-02-16T12:45:10;25.10;51.30
21425;DHT22;10873;51.132;16.848;2024-02-16T12:47:36;25.10;51.30
21425;DHT22;10873;51.132;16.848;2024-02-16T12:50:03;25.10;51.30
21425;DHT22;10873;51.132;16.848;2024-02-16T12:52:30;25.10;51.30
21425;DHT22;10873;51.132;16.848;2024-02-16T12:55:00;25.10;51.20
21425;DHT22;10873;51.132;16.848;2024-02-16T12:57:26;25.10;51.20
21425;DHT22;10873;51.132;16.848;2024-02-16T12:59:54;25.10;51.20
21425;DHT22;10873;51.132;16.848;2024-02-16T13:02:20;25.10;51.20
21425;DHT22;10873;51.132;16.848;2024-02-16T13:04:46;25.10;51.50
21425;DHT22;10873;51.132;16.848;2024-02-16T13:07:12;25.20;51.80
21425;DHT22;10873;51.132;16.848;2024-02-16T13:09:39;25.20;52.00
21425;DHT22;10873;51.132;16.848;2024-02-16T13:12:07;25.20;52.20
21425;DHT22;10873;51.132;16.848;2024-02-16T13:14:33;25.20;52.20
21425;DHT22;10873;51.132;16.848;2024-02-16T13:16:59;25.20;52.20
21425;DHT22;10873;51.132;16.848;2024-02-16T13:19:25;25.20;52.10
21425;DHT22;10873;51.132;16.848;2024-02-16T13:21:51;25.20;52.10
21425;DHT22;10873;51.132;16.848;2024-02-16T13:24:20;25.20;52.10
21425;DHT22;10873;51.132;16.848;2024-02-16T13:26:46;25.20;52.20
21425;DHT22;10873;51.132;16.848;2024-02-16T13:29:13;25.20;52.20
21425;DHT22;10873;51.132;16.848;2024-02-16T13:31:39;25.20;52.20
21425;DHT22;10873;51.132;16.848;2024-02-16T13:34:06;25.20;52.10
21425;DHT22;10873;51.132;16.848;2024-02-16T13:36:32;25.20;52.10
21425;DHT22;10873;51.132;16.848;2024-02-16T13:38:58;25.20;52.00
21425;DHT22;10873;51.132;16.848;2024-02-16T13:41:25;25.20;52.00
21425;DHT22;10873;51.132;16.848;2024-02-16T13:43:52;25.20;52.00
21425;DHT22;10873;51.132;16.848;2024-02-16T13:46:18;25.20;51.90
21425;DHT22;10873;51.132;16.848;2024-02-16T13:48:45;25.20;51.90
21425;DHT22;10873;51.132;16.848;2024-02-16T13:51:11;25.20;51.80
21425;DHT22;10873;51.132;16.848;2024-02-16T13:53:37;25.20;51.80
21425;DHT22;10873;51.132;16.848;2024-02-16T13:56:04;25.20;51.80
21425;DHT22;10873;51.132;16.848;2024-02-16T13:58:32;25.20;51.80
21425;DHT22;10873;51.132;16.848;2024-02-16T14:01:01;25.20;51.80
21425;DHT22;10873;51.132;16.848;2024-02-16T14:03:30;25.20;51.70
21425;DHT22;10873;51.132;16.848;2024-02-16T14:05:58;25.20;51.90
21425;DHT22;10873;51.132;16.848;2024-02-16T14:08:25;25.10;52.00
21425;DHT22;10873;51.132;16.848;2024-02-16T14:10:52;25.20;52.30
21425;DHT22;10873;51.132;16.848;2024-02-16T14:13:18;25.20;52.50
21425;DHT22;10873;51.132;16.848;2024-02-16T14:15:45;25.20;52.60
21425;DHT22;10873;51.132;16.848;2024-02-16T14:18:11;25.10;52.50
21425;DHT22;10873;51.132;16.848;2024-02-16T14:20:41;25.20;52.60
21425;DHT22;10873;51.132;16.848;2024-02-16T14:23:07;25.10;52.50
21425;DHT22;10873;51.132;16.848;2024-02-16T14:25:35;25.10;53.10
21425;DHT22;10873;51.132;16.848;2024-02-16T14:28:07;25.20;52.50
21425;DHT22;10873;51.132;16.848;2024-02-16T14:30:33;25.20;52.50
21425;DHT22;10873;51.132;16.848;2024-02-16T14:33:01;25.20;52.40
21425;DHT22;10873;51.132;16.848;2024-02-16T14:35:30;25.10;52.40
21425;DHT22;10873;51.132;16.848;2024-02-16T14:37:58;25.10;52.40
21425;DHT22;10873;51.132;16.848;2024-02-16T14:40:25;25.10;52.30
21425;DHT22;10873;51.132;16.848;2024-02-16T14:42:51;25.10;52.30
21425;DHT22;10873;51.132;16.848;2024-02-16T14:45:17;25.10;52.30
21425;DHT22;10873;51.132;16.848;2024-02-16T14:47:47;25.10;52.30
21425;DHT22;10873;51.132;16.848;2024-02-16T14:50:14;25.10;52.30
21425;DHT22;10873;51.132;16.848;2024-02-16T14:52:42;25.10;52.30
21425;DHT22;10873;51.132;16.848;2024-02-16T14:55:09;25.10;52.30
21425;DHT22;10873;51.132;16.848;2024-02-16T14:57:36;25.10;52.30
21425;DHT22;10873;51.132;16.848;2024-02-16T15:00:03;25.10;52.30
21425;DHT22;10873;51.132;16.848;2024-02-16T15:02:30;25.10;52.30
21425;DHT22;10873;51.132;16.848;2024-02-16T15:04:56;25.10;52.30
21425;DHT22;10873;51.132;16.848;2024-02-16T15:07:22;25.10;52.20
21425;DHT22;10873;51.132;16.848;2024-02-16T15:09:48;25.20;52.20
21425;DHT22;10873;51.132;16.848;2024-02-16T15:12:16;25.20;52.20
21425;DHT22;10873;51.132;16.848;2024-02-16T15:14:44;25.20;52.20